Terminal Aerodrome Forecast
Issued by NWS Grand Forks, ND

Home | Current Version | Previous Version | Graphics & Text | Print | Product List | Glossary On
Versions: 1 2 3 4 5 6 7 8 9 10 11 12 13
000
FTUS43 KFGF 251125
TAFFAR
TAF
KFAR 251125Z 2512/2612 19007KT P6SM SKC
     FM251800 21015G24KT P6SM SCT250
     FM260700 34017G25KT P6SM BKN100=

USA.gov is the U.S. government's official web portal to all federal, state and local government web resources and services.